createdAt,value
2019-06-27T00:12:56.230Z,61.22
2019-06-27T00:16:01.535Z,60.62
2019-06-27T01:54:56.236Z,63.62
2019-06-27T02:53:33.798Z,68.87
2019-06-27T03:39:54.404Z,71.53
2019-06-27T03:42:59.152Z,71.71
2019-06-27T03:46:03.994Z,72.10
2019-06-27T03:52:13.847Z,72.87
2019-06-27T05:30:57.626Z,73.50
2019-06-27T05:34:03.046Z,73.18
2019-06-27T07:09:43.782Z,66.02
2019-06-27T07:15:54.828Z,66.15
2019-06-27T07:19:00.609Z,66.33
2019-06-27T07:22:05.508Z,65.22
2019-06-27T09:06:58.079Z,54.65
2019-06-27T09:22:23.785Z,53.40
2019-06-27T09:40:53.873Z,51.40
2019-06-27T09:53:14.899Z,51.90
2019-06-27T10:54:57.795Z,44.53
2019-06-27T10:58:02.920Z,43.69
2019-06-27T11:22:43.783Z,38.38
2019-06-27T11:28:54.132Z,37.62
2019-06-27T11:47:24.224Z,36.10
2019-06-27T11:53:34.151Z,36.80
2019-06-27T12:05:54.000Z,36.52
2019-06-27T12:42:56.136Z,31.39
2019-06-27T13:53:53.847Z,26.70
2019-06-27T14:30:56.913Z,25.62
2019-06-27T14:52:35.063Z,24.85
2019-06-27T15:04:54.553Z,24.97
2019-06-27T15:35:52.178Z,24.63
2019-06-27T15:51:14.187Z,23.02
2019-06-27T16:18:59.565Z,20.92
2019-06-27T18:06:55.933Z,19.16
2019-06-27T18:10:00.838Z,19.02
2019-06-27T20:04:34.265Z,26.08
2019-06-27T20:13:50.533Z,26.76
2019-06-27T20:16:55.567Z,27.17
2019-06-27T20:20:00.428Z,27.37
2019-06-27T20:23:05.509Z,27.36
2019-06-27T20:26:10.326Z,27.70
2019-06-27T20:29:15.494Z,27.83
2019-06-27T20:32:20.328Z,27.86
2019-06-27T20:35:25.085Z,27.55
2019-06-27T20:38:35.041Z,28.42
2019-06-27T20:41:36.310Z,29.20
2019-06-27T20:44:41.096Z,29.46
2019-06-27T20:47:46.077Z,30.05
2019-06-27T20:50:51.398Z,29.86
2019-06-27T20:53:56.236Z,29.91
2019-06-27T20:57:01.093Z,30.85
2019-06-27T21:00:06.576Z,30.98
2019-06-27T21:03:11.821Z,32.48
2019-06-27T21:06:16.801Z,32.92
2019-06-27T21:09:21.975Z,33.29
2019-06-27T21:12:26.729Z,34.24
2019-06-27T21:15:31.685Z,34.88
2019-06-27T21:18:36.613Z,34.89
2019-06-27T21:21:41.387Z,35.01
2019-06-27T21:24:46.510Z,35.33
2019-06-27T21:27:51.543Z,34.96
2019-06-27T21:30:56.308Z,34.71
2019-06-27T21:34:01.409Z,34.91
2019-06-27T21:37:06.303Z,35.00
2019-06-27T21:40:11.271Z,35.44
2019-06-27T21:43:17.409Z,36.09
2019-06-27T21:46:22.577Z,36.26
2019-06-27T21:49:27.425Z,36.67
2019-06-27T21:52:32.268Z,36.72
2019-06-27T21:55:37.080Z,36.75
2019-06-27T21:58:41.959Z,37.44
2019-06-27T22:01:47.221Z,38.05
2019-06-27T22:04:51.990Z,38.15
2019-06-27T22:07:56.826Z,38.05
2019-06-27T22:11:02.455Z,38.50
2019-06-27T22:14:07.750Z,39.25
2019-06-27T22:17:12.630Z,39.23
2019-06-27T22:20:17.709Z,39.90
2019-06-27T22:23:22.861Z,39.69
2019-06-27T22:26:27.998Z,40.13
2019-06-27T22:29:32.737Z,39.77
2019-06-27T22:32:37.547Z,39.79
2019-06-27T22:35:42.412Z,39.87
2019-06-27T22:39:05.100Z,39.97
2019-06-27T22:42:28.099Z,40.19
2019-06-27T22:45:51.081Z,39.82
2019-06-27T22:48:58.599Z,40.70
2019-06-27T22:52:15.362Z,41.48
2019-06-27T22:55:22.318Z,41.74
2019-06-27T22:58:27.431Z,41.75
2019-06-27T23:01:32.501Z,42.15
2019-06-27T23:04:37.343Z,42.00
2019-06-27T23:07:43.395Z,42.28
2019-06-27T23:10:48.445Z,42.98
2019-06-27T23:13:53.353Z,43.29
2019-06-27T23:16:59.196Z,43.92
2019-06-27T23:20:04.338Z,44.19
2019-06-27T23:23:09.137Z,43.20
2019-06-27T23:26:14.892Z,43.06
2019-06-27T23:29:19.904Z,42.59
2019-06-27T23:32:25.173Z,42.78
2019-06-27T23:35:30.376Z,42.53
2019-06-27T23:38:35.170Z,42.11
2019-06-27T23:41:40.240Z,42.99
2019-06-27T23:44:45.320Z,42.88
2019-06-27T23:47:50.192Z,43.57
2019-06-27T23:50:54.918Z,43.18
2019-06-27T23:53:59.927Z,43.78
2019-06-27T23:57:06.030Z,44.16
